Time;durP1;ratioP1;P1;durP2;ratioP2;P2;SDS_P1;SDS_P2;PMS_P1;PMS_P2;Temp;Humidity;BMP_temperature;BMP_pressure;BME280_temperature;BME280_humidity;BME280_pressure;Samples;Min_cycle;Max_cycle;Signal;HPM_P1;HPM_P2
2023/07/03 00:02:19;;;;;;;5.95;3.62;;;;;;;27.53;37.81;99280.09;4500956;31;33878;-66
2023/07/03 00:04:49;;;;;;;7.07;3.80;;;;;;;27.50;37.73;99278.72;4500803;31;34468;-65
2023/07/03 00:07:16;;;;;;;6.43;3.78;;;;;;;27.50;37.60;99278.72;4500941;31;33530;-65
2023/07/03 00:09:44;;;;;;;6.75;3.47;;;;;;;27.48;37.69;99282.81;4500992;31;34035;-65
2023/07/03 00:12:12;;;;;;;6.72;3.85;;;;;;;27.45;37.59;99282.25;4486521;31;33985;-64
2023/07/03 00:14:39;;;;;;;8.93;3.67;;;;;;;27.43;37.55;99286.38;4499594;31;33773;-65
2023/07/03 00:17:10;;;;;;;6.82;3.78;;;;;;;27.42;37.56;99287.47;4500803;31;33753;-65
2023/07/03 00:19:38;;;;;;;6.22;3.67;;;;;;;27.40;37.55;99290.44;4500668;31;33065;-65
2023/07/03 00:22:05;;;;;;;6.12;3.60;;;;;;;27.39;37.49;99290.72;4500858;31;33459;-66
2023/07/03 00:24:33;;;;;;;6.90;3.62;;;;;;;27.37;37.50;99288.25;4500765;31;33604;-65
2023/07/03 00:27:01;;;;;;;7.45;4.12;;;;;;;27.36;37.49;99288.50;4500840;31;33827;-64
2023/07/03 00:29:29;;;;;;;5.72;3.05;;;;;;;27.36;37.45;99289.31;4500848;31;33534;-64
2023/07/03 00:31:58;;;;;;;6.43;3.55;;;;;;;27.33;37.44;99292.59;4499147;31;34626;-65
2023/07/03 00:34:26;;;;;;;6.50;3.65;;;;;;;27.33;37.42;99298.09;4499598;31;34084;-66
2023/07/03 00:36:54;;;;;;;5.82;3.42;;;;;;;27.32;37.39;99290.94;4500705;31;34394;-66
2023/07/03 00:39:22;;;;;;;6.20;3.67;;;;;;;27.31;37.41;99296.69;4499576;31;33813;-66
2023/07/03 00:41:49;;;;;;;6.05;3.53;;;;;;;27.29;37.35;99291.47;4500666;31;33835;-66
2023/07/03 00:44:18;;;;;;;6.25;3.65;;;;;;;27.29;37.35;99296.12;4500636;31;34995;-66
2023/07/03 00:46:48;;;;;;;6.72;3.50;;;;;;;27.28;37.32;99294.47;4500365;31;34399;-64
2023/07/03 00:49:17;;;;;;;8.27;3.95;;;;;;;27.25;37.26;99292.28;4499466;31;33143;-66
2023/07/03 00:51:47;;;;;;;9.30;3.87;;;;;;;27.25;37.23;99297.75;4499459;31;34322;-65
2023/07/03 00:54:14;;;;;;;6.62;3.22;;;;;;;27.24;37.24;99301.59;4486293;31;33816;-65
2023/07/03 00:56:42;;;;;;;12.23;4.18;;;;;;;27.22;37.26;99288.12;4500573;31;34199;-65
2023/07/03 00:59:09;;;;;;;8.30;3.80;;;;;;;27.23;37.18;99294.44;4490060;31;33934;-65
2023/07/03 01:01:46;;;;;;;6.57;3.90;;;;;;;27.20;37.22;99290.34;4484615;32;33670;-65
2023/07/03 01:04:17;;;;;;;6.62;3.70;;;;;;;27.20;37.20;99298.53;4471166;32;33970;-65
2023/07/03 01:06:54;;;;;;;7.55;4.07;;;;;;;27.16;37.24;99300.16;4470814;32;33053;-64
2023/07/03 01:09:21;;;;;;;6.43;4.03;;;;;;;27.17;37.12;99297.16;4471028;32;34145;-65
2023/07/03 01:11:49;;;;;;;8.00;4.65;;;;;;;27.15;37.07;99304.00;4470780;32;34044;-65
2023/07/03 01:14:17;;;;;;;7.40;4.22;;;;;;;27.14;37.17;99305.91;4470381;32;34654;-68
2023/07/03 01:16:46;;;;;;;7.87;4.50;;;;;;;27.11;37.16;99300.94;4483373;32;33629;-67
2023/07/03 01:19:18;;;;;;;10.63;3.97;;;;;;;27.13;37.25;99308.88;4470520;32;33121;-66
2023/07/03 01:21:53;;;;;;;7.65;4.65;;;;;;;27.10;37.18;99304.78;4470950;32;34658;-68
2023/07/03 01:24:43;;;;;;;7.28;4.05;;;;;;;27.10;37.25;99307.53;4471000;31;33556;-70
2023/07/03 01:27:12;;;;;;;10.88;4.35;;;;;;;27.09;37.27;99302.28;4487897;31;33385;-66
2023/07/03 01:29:40;;;;;;;7.40;4.10;;;;;;;27.07;37.26;99308.00;4486437;31;33465;-65
2023/07/03 01:32:09;;;;;;;7.70;4.12;;;;;;;27.07;37.22;99301.69;4485715;31;33969;-67
2023/07/03 01:34:38;;;;;;;6.75;4.12;;;;;;;27.05;37.22;99299.25;4499053;31;34003;-66
2023/07/03 01:37:06;;;;;;;8.67;4.30;;;;;;;27.05;37.21;99296.50;4498144;31;33798;-68
2023/07/03 01:39:33;;;;;;;7.95;4.57;;;;;;;27.04;37.15;99299.47;4498911;31;33104;-65
2023/07/03 01:42:02;;;;;;;7.32;4.07;;;;;;;27.01;37.25;99295.38;4486159;31;34110;-66
2023/07/03 01:44:29;;;;;;;7.15;4.20;;;;;;;27.01;37.26;99289.06;4499240;31;33746;-64
2023/07/03 01:47:07;;;;;;;7.57;4.35;;;;;;;27.01;37.22;99295.38;4500221;31;33766;-66
2023/07/03 01:49:35;;;;;;;7.82;4.30;;;;;;;27.01;37.26;99292.63;4500216;31;33096;-66
2023/07/03 01:52:19;;;;;;;7.80;4.60;;;;;;;27.00;37.22;99292.87;4500086;31;33738;-70
2023/07/03 01:54:53;;;;;;;7.82;4.25;;;;;;;26.99;37.25;99288.50;4500187;31;33925;-65
2023/07/03 01:57:40;;;;;;;6.80;4.05;;;;;;;26.98;37.28;99295.06;4498702;31;33868;-66
2023/07/03 02:00:10;;;;;;;8.30;4.37;;;;;;;26.98;37.26;99293.16;4484296;32;33260;-65
2023/07/03 02:02:39;;;;;;;7.12;4.22;;;;;;;26.95;37.36;99299.13;4483031;32;33842;-65
2023/07/03 02:05:10;;;;;;;8.48;3.90;;;;;;;26.95;37.40;99299.13;4470524;32;34155;-64
2023/07/03 02:07:37;;;;;;;;;;;;;;;26.93;37.34;99307.63;4470650;32;34486;-65
2023/07/03 02:10:05;;;;;;;6.15;4.03;;;;;;;27.04;37.17;99299.47;4484108;32;34202;-65
2023/07/03 02:12:33;;;;;;;7.80;4.43;;;;;;;26.95;37.34;99290.94;4482938;32;33582;-66
2023/07/03 02:15:02;;;;;;;7.20;4.37;;;;;;;26.89;37.42;99292.81;4484449;32;33896;-65
2023/07/03 02:17:32;;;;;;;9.40;4.72;;;;;;;26.89;37.53;99291.97;4484400;32;34330;-64
2023/07/03 02:20:00;;;;;;;9.77;4.95;;;;;;;26.88;37.53;99295.81;4495758;31;34417;-64
2023/07/03 02:22:28;;;;;;;9.10;4.70;;;;;;;26.88;37.56;99295.81;4484284;32;34852;-65
2023/07/03 02:24:55;;;;;;;8.77;4.95;;;;;;;26.86;37.58;99296.09;4484037;32;33604;-66
2023/07/03 02:27:23;;;;;;;7.32;4.87;;;;;;;26.87;37.58;99299.66;4492862;31;33718;-65
2023/07/03 02:29:50;;;;;;;7.80;5.07;;;;;;;26.85;37.57;99299.87;4499708;31;34137;-65
2023/07/03 02:32:18;;;;;;;7.70;4.95;;;;;;;26.85;37.63;99299.06;4499535;31;33850;-64
2023/07/03 02:34:45;;;;;;;7.82;5.07;;;;;;;26.84;37.61;99300.97;4499718;31;34961;-65
2023/07/03 02:37:14;;;;;;;7.82;5.20;;;;;;;26.84;37.61;99306.44;4499559;31;33831;-65
2023/07/03 02:39:41;;;;;;;8.43;4.70;;;;;;;26.84;37.59;99303.72;4499547;31;33191;-64
2023/07/03 02:42:10;;;;;;;7.05;4.68;;;;;;;26.83;37.63;99307.53;4499654;31;33728;-65
2023/07/03 02:44:38;;;;;;;8.20;4.78;;;;;;;26.83;37.61;99307.53;4499299;31;33870;-64
2023/07/03 02:47:06;;;;;;;8.00;5.10;;;;;;;26.83;37.62;99306.72;4500295;31;33756;-64
2023/07/03 02:49:34;;;;;;;7.87;4.72;;;;;;;26.82;37.62;99302.34;4501773;31;34272;-65
2023/07/03 02:52:02;;;;;;;8.15;4.55;;;;;;;26.81;37.69;99301.50;4501332;31;33550;-64
2023/07/03 02:54:30;;;;;;;9.45;4.87;;;;;;;26.81;37.67;99303.41;4501677;31;33926;-66
2023/07/03 02:56:58;;;;;;;8.32;5.10;;;;;;;26.80;37.71;99305.31;4501418;31;33796;-65
2023/07/03 02:59:26;;;;;;;7.15;4.75;;;;;;;26.79;37.70;99311.88;4501443;31;33172;-66
2023/07/03 03:01:53;;;;;;;8.02;5.15;;;;;;;26.78;37.73;99317.63;4501615;31;34745;-65
2023/07/03 03:04:22;;;;;;;11.65;5.15;;;;;;;26.78;37.72;99321.19;4501236;31;34149;-66
2023/07/03 03:06:49;;;;;;;7.35;4.57;;;;;;;26.78;37.74;99317.63;4501359;31;33815;-66
2023/07/03 03:09:17;;;;;;;7.95;5.15;;;;;;;26.80;37.74;99329.13;4501331;31;33422;-66
2023/07/03 03:11:45;;;;;;;7.37;4.78;;;;;;;26.78;37.72;99320.38;4501460;31;34754;-65
2023/07/03 03:14:13;;;;;;;10.75;5.15;;;;;;;26.76;37.73;99315.13;4501159;31;34157;-66
2023/07/03 03:16:40;;;;;;;8.60;5.05;;;;;;;26.76;37.71;99317.03;4501498;31;34517;-66
2023/07/03 03:19:08;;;;;;;9.55;4.82;;;;;;;26.76;37.76;99315.13;4501150;31;33391;-66
2023/07/03 03:21:35;;;;;;;7.75;4.60;;;;;;;26.75;37.80;99315.41;4501275;31;34204;-66
2023/07/03 03:24:03;;;;;;;9.57;4.95;;;;;;;26.75;37.83;99315.41;4501436;31;34002;-65
2023/07/03 03:26:31;;;;;;;7.95;4.62;;;;;;;26.76;37.81;99322.53;4501260;31;33711;-68
2023/07/03 03:28:59;;;;;;;7.82;4.80;;;;;;;26.74;37.86;99319.22;4501395;31;33334;-71
2023/07/03 03:31:26;;;;;;;7.50;4.60;;;;;;;26.74;37.81;99324.72;4501232;31;32373;-70
2023/07/03 03:33:54;;;;;;;7.30;4.70;;;;;;;26.73;37.89;99320.31;4501137;31;33868;-68
2023/07/03 03:36:22;;;;;;;8.25;4.72;;;;;;;26.73;37.86;99323.06;4500905;31;33798;-65
2023/07/03 03:38:49;;;;;;;9.43;5.15;;;;;;;26.73;37.87;99326.62;4499816;31;33119;-65
2023/07/03 03:41:18;;;;;;;8.60;5.07;;;;;;;26.71;37.82;99324.13;4501321;31;34379;-66
2023/07/03 03:43:47;;;;;;;8.15;4.95;;;;;;;26.71;37.87;99321.38;4500960;31;33745;-65
2023/07/03 03:46:14;;;;;;;8.13;5.53;;;;;;;26.72;37.86;99327.72;4486771;31;34401;-65
2023/07/03 03:48:42;;;;;;;8.75;5.15;;;;;;;26.71;37.86;99326.84;4501082;31;33442;-65
2023/07/03 03:51:10;;;;;;;8.52;4.90;;;;;;;26.72;37.89;99330.44;4501197;31;33505;-65
2023/07/03 03:53:39;;;;;;;8.10;4.67;;;;;;;26.71;37.93;99336.97;4501328;31;34857;-64
2023/07/03 03:56:07;;;;;;;8.48;4.87;;;;;;;26.72;37.93;99335.94;4501308;31;33660;-65
2023/07/03 03:58:35;;;;;;;9.25;5.43;;;;;;;26.70;37.93;99344.38;4493991;31;33321;-66
2023/07/03 04:01:03;;;;;;;7.62;4.80;;;;;;;26.71;37.98;99336.97;4485243;32;33521;-66
2023/07/03 04:03:30;;;;;;;9.63;5.50;;;;;;;26.69;37.96;99342.72;4485317;32;34751;-66
2023/07/03 04:05:58;;;;;;;9.70;5.07;;;;;;;26.71;38.08;99345.19;4485427;32;33449;-65
2023/07/03 04:08:26;;;;;;;8.77;4.87;;;;;;;26.71;38.12;99348.75;4483968;32;33513;-67
2023/07/03 04:10:53;;;;;;;9.70;5.22;;;;;;;26.71;38.14;99346.00;4485080;32;34960;-65
2023/07/03 04:13:21;;;;;;;7.95;5.03;;;;;;;26.72;38.15;99349.59;4485184;32;33083;-64
2023/07/03 04:15:51;;;;;;;9.25;4.80;;;;;;;26.73;38.13;99350.44;4485249;32;34521;-65
2023/07/03 04:18:20;;;;;;;8.35;4.85;;;;;;;26.71;38.15;99350.66;4485054;32;34340;-65
2023/07/03 04:20:48;;;;;;;8.25;4.95;;;;;;;26.73;38.15;99356.72;4485014;32;34517;-64
2023/07/03 04:23:16;;;;;;;7.45;5.12;;;;;;;26.72;38.14;99357.81;4484989;32;33889;-65
2023/07/03 04:25:44;;;;;;;8.10;4.90;;;;;;;26.73;38.03;99364.12;4484762;32;34482;-65
2023/07/03 04:28:11;;;;;;;8.07;4.97;;;;;;;26.72;37.99;99363.28;4485278;32;33461;-64
2023/07/03 04:30:39;;;;;;;8.50;5.43;;;;;;;26.72;38.03;99366.03;4484726;32;34082;-65
2023/07/03 04:33:07;;;;;;;8.55;5.45;;;;;;;26.71;38.03;99367.91;4484813;32;34653;-68
2023/07/03 04:35:36;;;;;;;8.73;5.18;;;;;;;26.73;38.04;99369.59;4484950;32;33652;-70
2023/07/03 04:38:03;;;;;;;8.43;4.57;;;;;;;26.73;38.03;99366.84;4483656;32;33443;-68
2023/07/03 04:40:31;;;;;;;7.93;4.55;;;;;;;26.71;38.09;99364.34;4483372;32;33637;-68
2023/07/03 04:42:59;;;;;;;8.38;4.82;;;;;;;26.71;38.19;99365.16;4484929;32;34792;-70
2023/07/03 04:45:29;;;;;;;8.20;4.82;;;;;;;26.73;38.12;99366.84;4484895;32;33664;-69
2023/07/03 04:47:57;;;;;;;;;;;;;;;26.72;38.19;99368.75;4485039;32;33047;-71
2023/07/03 04:50:25;;;;;;;10.73;5.37;;;;;;;26.84;37.98;99368.59;4484936;32;34946;-70
2023/07/03 04:52:53;;;;;;;9.55;5.10;;;;;;;26.76;38.13;99372.59;4483488;32;34881;-69
2023/07/03 04:55:24;;;;;;;10.85;5.22;;;;;;;26.75;38.23;99376.44;4484788;32;34679;-68
2023/07/03 04:57:52;;;;;;;10.00;5.10;;;;;;;26.75;38.20;99375.63;4486545;31;34243;-69
2023/07/03 05:00:20;;;;;;;9.45;4.65;;;;;;;26.75;38.24;99372.88;4500471;31;34029;-70
2023/07/03 05:02:48;;;;;;;8.35;5.07;;;;;;;26.75;38.21;99370.13;4500467;31;33621;-69
2023/07/03 05:05:19;;;;;;;7.43;4.65;;;;;;;26.74;38.22;99369.31;4486328;31;34410;-70
2023/07/03 05:07:47;;;;;;;9.18;5.28;;;;;;;26.75;38.33;99375.63;4500360;31;34232;-71
2023/07/03 05:10:16;;;;;;;8.48;4.87;;;;;;;26.75;38.35;99381.91;4499668;31;33832;-69
2023/07/03 05:12:44;;;;;;;10.57;5.47;;;;;;;26.74;38.33;99383.00;4486210;31;34200;-71
2023/07/03 05:15:12;;;;;;;8.60;4.78;;;;;;;26.76;38.37;99386.28;4499172;31;33744;-70
2023/07/03 05:17:40;;;;;;;7.87;4.45;;;;;;;26.77;38.33;99387.16;4499290;31;33426;-71
2023/07/03 05:20:10;;;;;;;11.95;5.22;;;;;;;26.76;38.33;99383.56;4500609;31;33377;-68
2023/07/03 05:22:37;;;;;;;;;;;;;;;26.75;38.46;99398.34;4494817;31;33695;-71
2023/07/03 05:25:06;;;;;;;9.95;4.97;;;;;;;26.87;38.28;99398.19;4488888;31;33071;-70
2023/07/03 05:27:34;;;;;;;7.75;4.50;;;;;;;26.80;38.41;99397.56;4483473;32;33322;-70
2023/07/03 05:30:02;;;;;;;9.02;4.55;;;;;;;26.77;38.47;99398.91;4493984;31;33849;-70
2023/07/03 05:32:29;;;;;;;8.80;4.93;;;;;;;26.76;38.53;99401.91;4500351;31;34705;-64
2023/07/03 05:34:57;;;;;;;7.40;4.82;;;;;;;26.76;38.53;99408.19;4499487;31;33962;-70
2023/07/03 05:37:25;;;;;;;9.88;5.43;;;;;;;26.76;38.56;99412.84;4500239;31;34145;-69
2023/07/03 05:39:52;;;;;;;7.62;4.30;;;;;;;26.75;38.46;99414.75;4499106;31;33931;-70
2023/07/03 05:42:20;;;;;;;8.23;4.47;;;;;;;26.76;38.51;99415.59;4499249;31;34032;-70
2023/07/03 05:44:48;;;;;;;9.07;5.50;;;;;;;26.75;38.49;99420.22;4498866;31;34158;-69
2023/07/03 05:47:15;;;;;;;9.68;4.95;;;;;;;26.77;38.41;99422.72;4500185;31;33548;-70
2023/07/03 05:49:43;;;;;;;8.65;5.25;;;;;;;26.75;38.26;99411.19;4500513;31;33607;-70
2023/07/03 05:52:11;;;;;;;8.65;4.93;;;;;;;26.77;38.33;99420.81;4500135;31;34779;-67
2023/07/03 05:54:38;;;;;;;6.97;4.60;;;;;;;26.77;38.36;99417.25;4500214;31;33889;-69
2023/07/03 05:57:09;;;;;;;9.57;4.80;;;;;;;26.76;38.26;99419.13;4499001;31;33325;-71
2023/07/03 05:59:38;;;;;;;10.93;4.55;;;;;;;26.76;38.22;99429.25;4485446;31;33595;-71
2023/07/03 06:02:11;;;;;;;7.80;4.30;;;;;;;26.76;38.05;99435.56;4470086;32;33820;-69
2023/07/03 06:04:39;;;;;;;8.48;4.70;;;;;;;26.76;38.13;99432.00;4484216;32;34022;-71
2023/07/03 06:07:07;;;;;;;7.68;4.30;;;;;;;26.75;38.23;99433.91;4484262;32;33446;-70
2023/07/03 06:09:34;;;;;;;10.50;5.32;;;;;;;26.76;38.31;99438.28;4484433;32;33691;-71
2023/07/03 06:12:04;;;;;;;9.60;5.30;;;;;;;26.78;38.35;99436.16;4485720;31;34790;-71
2023/07/03 06:14:34;;;;;;;10.13;5.18;;;;;;;26.79;38.37;99436.97;4495924;31;33592;-71
2023/07/03 06:17:01;;;;;;;9.63;4.75;;;;;;;26.80;38.29;99436.72;4498854;31;33186;-64
2023/07/03 06:19:29;;;;;;;9.15;4.60;;;;;;;26.80;38.19;99439.44;4499681;31;33936;-65
2023/07/03 06:21:57;;;;;;;8.65;5.25;;;;;;;26.81;38.26;99427.41;4498072;31;34825;-64
2023/07/03 06:24:24;;;;;;;8.48;5.30;;;;;;;26.81;38.15;99429.31;4498439;31;33765;-64
2023/07/03 06:26:52;;;;;;;9.00;5.30;;;;;;;26.82;38.11;99437.28;4498243;31;34356;-65
2023/07/03 06:29:20;;;;;;;7.37;4.80;;;;;;;26.82;38.15;99434.56;4498765;31;33862;-71
2023/07/03 06:31:48;;;;;;;8.63;5.10;;;;;;;26.82;38.17;99429.06;4493062;31;167614;-72
2023/07/03 06:34:16;;;;;;;8.30;5.05;;;;;;;26.84;38.21;99429.63;4485367;31;33386;-66
2023/07/03 06:36:43;;;;;;;10.05;4.95;;;;;;;26.85;38.15;99425.81;4499595;31;33080;-65
2023/07/03 06:39:11;;;;;;;6.72;4.50;;;;;;;26.86;38.05;99423.88;4499481;31;34687;-70
2023/07/03 06:41:39;;;;;;;9.48;4.85;;;;;;;26.86;38.08;99421.16;4498070;31;34446;-68
2023/07/03 06:44:11;;;;;;;9.75;5.50;;;;;;;26.86;38.02;99419.28;4498282;31;33133;-67
2023/07/03 06:46:39;;;;;;;8.98;4.53;;;;;;;26.87;38.03;99423.66;4497241;31;34274;-69
2023/07/03 06:49:07;;;;;;;9.45;5.15;;;;;;;26.89;37.75;99424.22;4497774;31;33525;-68
2023/07/03 06:51:37;;;;;;;12.60;5.22;;;;;;;26.94;37.90;99423.44;4497725;31;33730;-69
2023/07/03 06:54:05;;;;;;;7.53;4.72;;;;;;;26.95;37.18;99427.81;4490158;31;33823;-70
2023/07/03 06:56:33;;;;;;;8.02;4.53;;;;;;;26.96;37.01;99429.50;4482870;31;34289;-69
2023/07/03 06:59:00;;;;;;;13.70;5.05;;;;;;;26.98;37.04;99430.03;4492633;31;34071;-67
2023/07/03 07:01:28;;;;;;;12.88;6.22;;;;;;;26.96;37.15;99437.72;4499117;31;34852;-71
2023/07/03 07:03:56;;;;;;;11.25;5.15;;;;;;;26.99;36.55;99439.91;4499201;31;33773;-66
2023/07/03 07:06:25;;;;;;;12.57;5.40;;;;;;;26.99;36.46;99437.16;4492702;31;33313;-64
2023/07/03 07:08:53;;;;;;;10.35;5.50;;;;;;;27.01;36.21;99436.94;4483578;31;33948;-69
2023/07/03 07:11:28;;;;;;;9.43;5.90;;;;;;;27.03;35.98;99438.31;4473814;31;33985;-67
2023/07/03 07:13:57;;;;;;;8.85;5.90;;;;;;;27.06;35.16;99436.97;4482937;31;33903;-65
2023/07/03 07:16:31;;;;;;;9.18;5.85;;;;;;;27.07;34.83;99436.72;4491608;31;33612;-64
2023/07/03 07:19:00;;;;;;;9.20;5.60;;;;;;;27.07;34.68;99435.88;4488197;31;33860;-65
2023/07/03 07:21:32;;;;;;;11.70;5.75;;;;;;;27.08;33.92;99435.66;4488002;31;34665;-64
2023/07/03 07:24:12;;;;;;;9.30;5.78;;;;;;;27.09;33.74;99437.31;4483019;31;34484;-66
2023/07/03 07:26:40;;;;;;;9.95;5.93;;;;;;;27.08;33.86;99435.66;4483147;32;33529;-68
2023/07/03 07:29:08;;;;;;;9.63;5.15;;;;;;;27.09;34.21;99437.31;4483055;32;34796;-65
2023/07/03 07:31:36;;;;;;;8.27;5.45;;;;;;;27.10;34.24;99427.19;4482823;32;34799;-64
2023/07/03 07:34:09;;;;;;;11.45;5.47;;;;;;;27.11;34.26;99435.13;4483448;32;33667;-64
2023/07/03 07:36:38;;;;;;;10.85;5.37;;;;;;;27.11;34.35;99429.66;4485639;32;33475;-65
2023/07/03 07:39:06;;;;;;;10.07;5.45;;;;;;;27.15;34.26;99429.97;4485562;32;34071;-71
2023/07/03 07:41:34;;;;;;;7.12;4.95;;;;;;;27.16;34.33;99431.63;4489558;31;34482;-67
2023/07/03 07:44:01;;;;;;;9.43;5.43;;;;;;;27.15;34.51;99436.28;4498047;31;33925;-65
2023/07/03 07:46:30;;;;;;;10.00;5.82;;;;;;;27.16;34.41;99432.44;4499866;31;33306;-69
2023/07/03 07:48:59;;;;;;;10.38;5.35;;;;;;;27.18;34.49;99430.25;4499574;31;33966;-69
2023/07/03 07:51:26;;;;;;;8.85;5.40;;;;;;;27.19;34.52;99437.41;4495437;31;34606;-65
2023/07/03 07:53:55;;;;;;;9.63;5.53;;;;;;;27.19;34.47;99440.16;4485589;31;33662;-68
2023/07/03 07:56:23;;;;;;;9.68;5.25;;;;;;;27.19;34.65;99445.63;4500862;31;33453;-65
2023/07/03 07:58:51;;;;;;;7.90;5.05;;;;;;;27.21;34.83;99442.63;4491806;31;34071;-67
2023/07/03 08:01:19;;;;;;;11.60;5.37;;;;;;;27.21;34.92;99443.44;4484884;32;33534;-64
2023/07/03 08:03:47;;;;;;;8.57;5.95;;;;;;;27.21;35.00;99440.69;4484863;32;34398;-65
2023/07/03 08:06:15;;;;;;;11.45;5.53;;;;;;;27.22;35.07;99438.78;4485013;32;34280;-70
2023/07/03 08:08:42;;;;;;;12.90;6.05;;;;;;;27.25;35.26;99438.28;4500154;31;33930;-65
2023/07/03 08:11:10;;;;;;;9.80;5.47;;;;;;;27.26;35.47;99445.41;4500508;31;34930;-68
2023/07/03 08:13:38;;;;;;;13.27;5.75;;;;;;;27.27;35.67;99433.34;4500293;31;34428;-66
2023/07/03 08:16:07;;;;;;;10.80;5.37;;;;;;;27.27;35.70;99438.00;4500619;31;33913;-72
2023/07/03 08:18:35;;;;;;;8.43;5.53;;;;;;;27.27;35.82;99446.22;4496308;31;34873;-72
2023/07/03 08:21:03;;;;;;;10.50;5.22;;;;;;;27.27;35.90;99440.75;4499468;31;34023;-72
2023/07/03 08:23:31;;;;;;;10.93;5.68;;;;;;;27.27;36.10;99449.78;4500329;31;33736;-67
2023/07/03 08:25:59;;;;;;;10.73;6.35;;;;;;;27.29;36.28;99447.63;4500707;31;33531;-67
2023/07/03 08:28:27;;;;;;;13.38;7.15;;;;;;;27.33;36.53;99442.47;4500692;31;34615;-65
2023/07/03 08:30:54;;;;;;;12.93;7.12;;;;;;;27.35;35.92;99449.31;4499051;31;33977;-66
2023/07/03 08:33:22;;;;;;;10.75;7.53;;;;;;;27.37;34.97;99451.78;4490269;31;34484;-66
2023/07/03 08:35:50;;;;;;;11.12;7.22;;;;;;;27.35;34.44;99452.06;4500529;31;34157;-71
2023/07/03 08:38:20;;;;;;;11.23;7.05;;;;;;;27.35;34.64;99452.06;4500335;31;34757;-71
2023/07/03 08:40:55;;;;;;;14.77;7.75;;;;;;;27.37;35.01;99458.13;4500867;31;33703;-72
2023/07/03 08:43:23;;;;;;;10.88;7.35;;;;;;;27.42;34.72;99454.59;4486263;31;33988;-65
2023/07/03 08:45:52;;;;;;;12.43;7.80;;;;;;;27.42;34.20;99460.06;4500502;31;34234;-71
2023/07/03 08:48:22;;;;;;;12.25;8.70;;;;;;;27.41;34.47;99455.66;4500407;31;33547;-66
2023/07/03 08:50:54;;;;;;;13.73;8.18;;;;;;;27.46;33.45;99456.50;4483436;32;34091;-67
2023/07/03 08:53:26;;;;;;;15.00;8.77;;;;;;;27.46;33.76;99466.66;4483412;32;34033;-66
2023/07/03 08:56:00;;;;;;;12.98;8.95;;;;;;;27.48;33.59;99464.50;4483459;32;33059;-70
2023/07/03 08:58:28;;;;;;;12.30;8.50;;;;;;;27.49;33.50;99460.66;4484414;32;34099;-66
2023/07/03 09:01:26;;;;;;;11.75;8.32;;;;;;;27.52;33.25;99459.31;4484562;32;34615;-64
2023/07/03 09:04:12;;;;;;;14.77;8.63;;;;;;;27.52;33.64;99462.06;4483773;32;33763;-64
2023/07/03 09:07:00;;;;;;;16.15;9.20;;;;;;;27.49;33.56;99460.66;4497915;31;33099;-65
2023/07/03 09:09:32;;;;;;;15.15;8.65;;;;;;;27.50;33.74;99464.22;4482866;32;33660;-71
2023/07/03 09:12:24;;;;;;;13.93;8.68;;;;;;;27.48;33.98;99467.25;4487351;31;33899;-67
2023/07/03 09:14:59;;;;;;;12.02;7.68;;;;;;;27.49;34.17;99468.88;4499161;31;33969;-66
2023/07/03 09:17:31;;;;;;;13.43;8.45;;;;;;;27.48;34.35;99467.25;4499272;31;33945;-67
2023/07/03 09:19:58;;;;;;;14.27;8.88;;;;;;;27.46;34.41;99467.47;4486043;31;34148;-65
2023/07/03 09:22:34;;;;;;;13.18;8.13;;;;;;;27.45;34.48;99459.53;4499273;31;34041;-64
2023/07/03 09:25:03;;;;;;;11.43;8.02;;;;;;;27.46;34.50;99464.75;4476370;32;34688;-70
2023/07/03 09:27:31;;;;;;;12.95;8.30;;;;;;;27.46;34.48;99470.22;4483318;32;33073;-66
2023/07/03 09:30:02;;;;;;;11.48;7.75;;;;;;;27.46;34.59;99458.44;4496138;31;33945;-64
2023/07/03 09:32:32;;;;;;;12.10;8.48;;;;;;;27.44;34.69;99463.38;4486677;31;34023;-65
2023/07/03 09:35:07;;;;;;;12.02;8.55;;;;;;;27.45;34.75;99470.50;4500319;31;33746;-65
2023/07/03 09:37:40;;;;;;;12.10;7.87;;;;;;;27.46;34.72;99466.66;4500067;31;33147;-65
2023/07/03 09:40:13;;;;;;;13.65;8.10;;;;;;;27.45;34.60;99467.75;4499801;31;33619;-71
2023/07/03 09:42:41;;;;;;;13.20;7.60;;;;;;;27.44;34.84;99466.94;4492889;31;33639;-65
2023/07/03 09:45:20;;;;;;;12.23;8.13;;;;;;;27.44;34.95;99472.41;4499648;31;34485;-69
2023/07/03 09:47:55;;;;;;;13.50;8.57;;;;;;;27.45;35.06;99468.56;4498593;31;33625;-65
2023/07/03 09:50:24;;;;;;;12.55;7.78;;;;;;;27.44;35.14;99466.94;4497147;31;34726;-71
2023/07/03 09:52:55;;;;;;;12.10;8.07;;;;;;;27.43;35.21;99473.50;4498908;31;34930;-66
2023/07/03 09:55:35;;;;;;;12.88;8.60;;;;;;;27.44;35.28;99471.59;4499209;31;33884;-64
2023/07/03 09:58:14;;;;;;;14.07;8.23;;;;;;;27.46;35.33;99474.87;4499345;31;34342;-66
2023/07/03 10:00:47;;;;;;;12.45;8.27;;;;;;;27.47;35.25;99468.31;4499922;31;33972;-71
2023/07/03 10:03:29;;;;;;;13.27;8.30;;;;;;;27.45;35.41;99470.50;4499822;31;34081;-66
2023/07/03 10:06:12;;;;;;;12.35;7.90;;;;;;;27.46;35.50;99469.41;4500020;31;33709;-65
2023/07/03 10:08:52;;;;;;;11.15;7.75;;;;;;;27.46;35.52;99472.12;4498890;31;33549;-66
2023/07/03 10:11:26;;;;;;;13.73;8.80;;;;;;;27.46;35.62;99475.69;4498637;31;33738;-65
2023/07/03 10:13:54;;;;;;;11.57;8.20;;;;;;;27.45;35.56;99476.78;4484563;31;34801;-66
2023/07/03 10:16:22;;;;;;;14.23;8.57;;;;;;;27.44;35.38;99472.41;4499529;31;33657;-64
2023/07/03 10:18:51;;;;;;;12.37;8.25;;;;;;;27.45;35.63;99470.50;4498568;31;33939;-65
2023/07/03 10:21:20;;;;;;;12.68;7.90;;;;;;;27.45;35.81;99463.09;4497727;31;33977;-67
2023/07/03 10:23:48;;;;;;;12.02;8.45;;;;;;;27.46;35.85;99456.50;4499619;31;34826;-71
2023/07/03 10:26:26;;;;;;;13.52;9.02;;;;;;;27.47;35.89;99460.09;4485509;31;33941;-72
2023/07/03 10:29:13;;;;;;;14.07;8.32;;;;;;;27.48;35.95;99475.47;4498227;31;33610;-67
2023/07/03 10:31:47;;;;;;;13.68;8.27;;;;;;;27.50;35.99;99475.19;4498337;31;34052;-66
2023/07/03 10:34:46;;;;;;;15.10;8.43;;;;;;;27.46;36.13;99467.47;4475125;31;34830;-68
2023/07/03 10:37:13;;;;;;;13.95;8.38;;;;;;;27.49;36.14;99474.34;4498464;31;33801;-71
2023/07/03 10:39:44;;;;;;;12.82;7.95;;;;;;;27.45;36.28;99462.25;4482336;31;33642;-67
2023/07/03 10:42:38;;;;;;;13.38;8.60;;;;;;;27.45;36.33;99468.56;4484654;31;34347;-66
2023/07/03 10:45:10;;;;;;;10.93;7.90;;;;;;;27.47;36.40;99462.84;4491490;31;33405;-66
2023/07/03 10:47:55;;;;;;;12.52;8.32;;;;;;;27.48;36.49;99466.41;4481591;31;33953;-63
2023/07/03 10:50:36;;;;;;;13.70;7.37;;;;;;;27.48;36.50;99467.25;4489339;31;33696;-64
2023/07/03 10:53:22;;;;;;;11.18;7.60;;;;;;;27.49;36.55;99473.53;4488453;31;34078;-71
2023/07/03 10:56:01;;;;;;;13.35;7.95;;;;;;;27.49;36.66;99471.62;4498232;31;33548;-65
2023/07/03 10:58:41;;;;;;;12.45;8.27;;;;;;;27.49;36.79;99473.53;4478371;31;33181;-66
2023/07/03 11:01:20;;;;;;;11.57;7.18;;;;;;;27.50;36.88;99467.78;4482253;31;33569;-72
2023/07/03 11:04:20;;;;;;;14.93;7.50;;;;;;;27.50;36.96;99475.19;4472164;31;33576;-71
2023/07/03 11:06:57;;;;;;;13.95;7.62;;;;;;;27.52;36.99;99475.75;4497820;31;33541;-69
2023/07/03 11:09:39;;;;;;;13.80;8.52;;;;;;;27.49;37.15;99476.28;4486478;31;34296;-71
2023/07/03 11:12:35;;;;;;;13.18;7.85;;;;;;;27.51;37.16;99477.66;4498720;31;33426;-72
2023/07/03 11:15:34;;;;;;;10.43;7.00;;;;;;;27.52;37.07;99478.50;4501001;31;34256;-66
2023/07/03 11:18:26;;;;;;;10.98;7.90;;;;;;;27.51;37.20;99477.66;4483990;32;33912;-65
2023/07/03 11:21:12;;;;;;;13.00;8.40;;;;;;;27.51;37.29;99477.66;4485341;32;34486;-67
2023/07/03 11:24:07;;;;;;;13.62;7.15;;;;;;;27.52;37.37;99475.75;4487270;31;33947;-67
2023/07/03 11:26:42;;;;;;;14.57;8.40;;;;;;;27.51;37.48;99476.84;4499877;31;34730;-66
2023/07/03 11:29:13;;;;;;;16.08;8.40;;;;;;;27.52;37.55;99473.84;4491932;31;33548;-71
2023/07/03 11:31:42;;;;;;;14.95;8.43;;;;;;;27.54;37.49;99463.44;4473261;31;33442;-66
2023/07/03 11:34:15;;;;;;;11.88;7.80;;;;;;;27.55;37.53;99473.31;4482108;31;33724;-69
2023/07/03 11:36:51;;;;;;;12.65;8.48;;;;;;;27.55;37.59;99478.78;4478012;31;33957;-64
2023/07/03 11:39:33;;;;;;;11.30;7.78;;;;;;;27.57;37.55;99462.94;4478070;32;33964;-72
2023/07/03 11:42:05;;;;;;;15.05;8.18;;;;;;;27.56;37.73;99464.03;4490014;31;33474;-65
2023/07/03 11:44:43;;;;;;;14.27;7.80;;;;;;;27.58;37.78;99464.56;4499648;31;34297;-66
2023/07/03 11:47:19;;;;;;;16.85;9.13;;;;;;;27.59;37.88;99463.47;4491829;31;33961;-72
2023/07/03 11:50:00;;;;;;;12.88;7.43;;;;;;;27.59;37.95;99462.66;4492528;31;34826;-66